Main page
METAR-TAF:

METAR-TAF

Airports :

Nouméa / La Tontouta, New Caledonia

La Tontouta International Airport

latitude: 22-01S, longitude: 166-13E, elevation: 16 m

Current weather observation

The report was made 47 minutes ago, at 06:30 UTC
Wind 6 kt from the South, varying between South/Southeast and Southwest
Temperature 25°C
Humidity 50%
Pressure 1016 hPa
Visibility 10 km or more
no clouds below 1500 m and no cumulonimbus

METAR: NWWW 260630Z AUTO 19006KT 160V220 CAVOK 25/14 Q1016 NOSIG

Time: 18:17 (07:17 UTC)

Forecast

The report was made 2 hours and 17 minutes ago, at 05:00 UTC
Forecast valid from 26 at 06 UTC to 27 at 06 UTC
Wind 8 kt from the South
Visibility 10 km or more
Broken clouds at a height of 6500 ft
Becoming
from 26 at 06 UTC to 26 at 08 UTC
Wind 2 kt from variable directions
Becoming
from 26 at 23 UTC to 27 at 01 UTC
Wind 10 kt from the Southwest

TAF: NWWW 260500Z 2606/2706 19008KT 9999 BKN065 BECMG 2606/2608 VRB02KT BECMG 2623/2701 22010KT

Weather observations and forecasts of more than 4000 airports (METAR and TAF reports).

The available stations are represented by yellow and red dots on the map.

Hover mouse over dot to see the name of the station.

Then click to see weather observations and forecasts.

To change the map : click on the green buttons with a black cross to zoom in, on the green button with a dash to zoom out, or on the green arrows for adjacent maps.


METAR-TAF: